Time;durP1;ratioP1;P1;durP2;ratioP2;P2;SDS_P1;SDS_P2;PMS_P1;PMS_P2;Temp;Humidity;BMP_temperature;BMP_pressure;BME280_temperature;BME280_humidity;BME280_pressure;Samples;Min_cycle;Max_cycle;Signal;HPM_P1;HPM_P2
2021/08/20 00:02:05;;;;;;;2.70;2.10;;;16.30;99.90;;;;;;5009983;28;20492;-72
2021/08/20 00:04:32;;;;;;;4.33;2.07;;;16.20;99.90;;;;;;5010330;28;20465;-71
2021/08/20 00:06:59;;;;;;;3.50;2.07;;;16.20;99.90;;;;;;5010521;28;20477;-71
2021/08/20 00:09:26;;;;;;;2.20;2.00;;;16.20;99.90;;;;;;5010058;28;20988;-71
2021/08/20 00:11:53;;;;;;;2.20;2.00;;;16.20;99.90;;;;;;5010709;28;20465;-71
2021/08/20 00:14:21;;;;;;;2.07;1.80;;;16.20;99.90;;;;;;5010578;28;20461;-71
2021/08/20 00:16:48;;;;;;;2.03;1.87;;;16.20;99.90;;;;;;5010230;28;20864;-71
2021/08/20 00:19:14;;;;;;;3.13;2.10;;;16.20;99.90;;;;;;5009980;28;20980;-71
2021/08/20 00:21:41;;;;;;;4.53;1.80;;;16.20;99.90;;;;;;5010331;28;20732;-71
2021/08/20 00:24:10;;;;;;;3.13;1.87;;;16.20;99.90;;;;;;4996589;28;20471;-71
2021/08/20 00:26:37;;;;;;;2.17;1.93;;;16.20;99.90;;;;;;4970957;28;20483;-71
2021/08/20 00:29:03;;;;;;;2.20;2.00;;;16.20;99.90;;;;;;4970785;28;20467;-71
2021/08/20 00:31:32;;;;;;;3.53;1.90;;;16.10;99.90;;;;;;4970896;28;20470;-71
2021/08/20 00:33:58;;;;;;;2.30;2.10;;;16.10;99.90;;;;;;4971301;28;20463;-71
2021/08/20 00:36:25;;;;;;;6.10;2.30;;;16.20;99.90;;;;;;4971025;28;20490;-71
2021/08/20 00:38:52;;;;;;;2.13;1.93;;;16.20;99.90;;;;;;4970209;28;20470;-71
2021/08/20 00:41:19;;;;;;;2.30;2.10;;;16.20;99.90;;;;;;4971089;28;20831;-71
2021/08/20 00:43:48;;;;;;;2.50;2.00;;;16.20;99.90;;;;;;4970632;28;20963;-71
2021/08/20 00:46:15;;;;;;;2.53;2.30;;;16.10;99.90;;;;;;4970841;28;20522;-71
2021/08/20 00:48:43;;;;;;;2.20;2.00;;;16.20;99.90;;;;;;4970025;28;20474;-71
2021/08/20 00:51:16;;;;;;;2.30;1.63;;;16.10;99.90;;;;;;4970896;28;20461;-71
2021/08/20 00:53:43;;;;;;;2.50;2.30;;;16.10;99.90;;;;;;4970432;28;20502;-71
2021/08/20 00:56:10;;;;;;;2.10;1.90;;;16.10;99.90;;;;;;4970622;28;20887;-71
2021/08/20 00:58:37;;;;;;;3.50;2.00;;;16.10;99.90;;;;;;4969920;28;20490;-71
2021/08/20 01:01:04;;;;;;;2.00;1.70;;;16.10;99.90;;;;;;4970507;28;20498;-72
2021/08/20 01:03:32;;;;;;;3.73;2.13;;;16.10;99.90;;;;;;4970296;28;20467;-71
2021/08/20 01:06:01;;;;;;;3.10;2.23;;;16.10;99.90;;;;;;4970609;28;20490;-69
2021/08/20 01:08:29;;;;;;;2.30;2.10;;;16.10;99.90;;;;;;4969730;28;20474;-69
2021/08/20 01:10:58;;;;;;;2.17;1.70;;;16.10;99.90;;;;;;4970584;28;20459;-69
2021/08/20 01:13:26;;;;;;;1.90;1.70;;;16.10;99.90;;;;;;4970312;28;20463;-69
2021/08/20 01:15:56;;;;;;;2.40;2.20;;;16.10;99.90;;;;;;4970225;28;20494;-69
2021/08/20 01:18:23;;;;;;;3.67;2.20;;;16.10;99.90;;;;;;4969421;28;20502;-71
2021/08/20 01:20:51;;;;;;;3.53;1.90;;;16.10;99.90;;;;;;4970098;28;20978;-71
2021/08/20 01:23:20;;;;;;;3.10;1.70;;;16.20;99.90;;;;;;4970320;28;20471;-72
2021/08/20 01:25:48;;;;;;;1.60;1.50;;;16.20;99.90;;;;;;4969840;28;20470;-71
2021/08/20 01:28:15;;;;;;;3.10;1.97;;;16.20;99.90;;;;;;4969593;28;20474;-71
2021/08/20 01:30:42;;;;;;;2.37;2.17;;;16.20;99.90;;;;;;4969888;28;20463;-71
2021/08/20 01:33:09;;;;;;;5.13;2.10;;;16.10;99.90;;;;;;4970158;28;20489;-71
2021/08/20 01:35:37;;;;;;;3.07;1.90;;;16.10;99.90;;;;;;4969912;28;20573;-71
2021/08/20 01:38:04;;;;;;;3.93;2.40;;;16.20;99.90;;;;;;4969656;28;20485;-71
2021/08/20 01:40:30;;;;;;;3.20;2.00;;;16.20;99.90;;;;;;4969994;28;20467;-71
2021/08/20 01:42:58;;;;;;;5.73;2.20;;;16.20;99.90;;;;;;4969815;28;20486;-71
2021/08/20 01:45:25;;;;;;;2.20;2.00;;;16.20;99.90;;;;;;4969889;28;20846;-71
2021/08/20 01:47:52;;;;;;;2.30;2.10;;;16.20;99.90;;;;;;4969775;28;20851;-71
2021/08/20 01:50:19;;;;;;;1.80;1.70;;;16.20;99.90;;;;;;4970099;28;20482;-71
2021/08/20 01:52:46;;;;;;;2.30;2.10;;;16.20;99.90;;;;;;4969620;28;20463;-71
2021/08/20 01:55:13;;;;;;;2.83;1.80;;;16.20;99.90;;;;;;4969882;28;20826;-71
2021/08/20 01:57:41;;;;;;;2.43;1.90;;;16.20;99.90;;;;;;4969149;28;21189;-71
2021/08/20 02:00:10;;;;;;;4.43;2.27;;;16.20;99.90;;;;;;4969702;28;20482;-71
2021/08/20 02:02:37;;;;;;;2.73;2.10;;;16.20;99.90;;;;;;4969454;28;20494;-71
2021/08/20 02:05:05;;;;;;;2.33;2.00;;;16.20;99.90;;;;;;4969878;28;20478;-71
2021/08/20 02:07:36;;;;;;;1.93;1.73;;;16.20;99.90;;;;;;4968937;28;20639;-71
2021/08/20 02:10:04;;;;;;;2.60;2.13;;;16.20;99.90;;;;;;4969998;28;20557;-71
2021/08/20 02:12:31;;;;;;;2.20;2.00;;;16.20;99.90;;;;;;4969392;28;21161;-71
2021/08/20 02:14:57;;;;;;;2.30;1.90;;;16.20;99.90;;;;;;4969763;28;20470;-71
2021/08/20 02:17:25;;;;;;;3.20;2.20;;;16.20;99.90;;;;;;4969088;28;20494;-71
2021/08/20 02:19:52;;;;;;;2.20;2.00;;;16.20;99.90;;;;;;4969516;28;20471;-71
2021/08/20 02:22:19;;;;;;;2.20;2.00;;;16.20;99.90;;;;;;4969726;28;20862;-71
2021/08/20 02:24:46;;;;;;;2.43;1.80;;;16.20;99.90;;;;;;4969392;28;20463;-72
2021/08/20 02:27:12;;;;;;;2.30;2.10;;;16.10;99.90;;;;;;4969019;28;21018;-71
2021/08/20 02:29:39;;;;;;;2.27;1.80;;;16.10;99.90;;;;;;4969932;28;20470;-71
2021/08/20 02:32:06;;;;;;;2.37;2.07;;;16.10;99.90;;;;;;4973210;28;20463;-71
2021/08/20 02:34:34;;;;;;;2.30;2.10;;;16.10;99.90;;;;;;4972984;28;20474;-71
2021/08/20 02:37:01;;;;;;;2.27;2.07;;;16.10;99.90;;;;;;4972805;28;20490;-71
2021/08/20 02:39:28;;;;;;;3.93;2.40;;;16.10;99.90;;;;;;4972645;28;20841;-71
2021/08/20 02:41:55;;;;;;;4.13;2.17;;;16.10;99.90;;;;;;4973068;28;20914;-71
2021/08/20 02:44:21;;;;;;;2.53;2.00;;;16.10;99.90;;;;;;4973078;28;20541;-71
2021/08/20 02:46:48;;;;;;;3.10;1.97;;;16.10;99.90;;;;;;4972696;28;20856;-72
2021/08/20 02:49:15;;;;;;;3.13;2.27;;;16.10;99.90;;;;;;4972432;28;20482;-72
2021/08/20 02:51:43;;;;;;;2.93;2.60;;;16.10;99.90;;;;;;4972805;28;20463;-71
2021/08/20 02:54:09;;;;;;;2.93;2.23;;;16.10;99.90;;;;;;4972886;28;20474;-72
2021/08/20 02:56:36;;;;;;;3.03;2.50;;;16.10;99.90;;;;;;4972600;28;20490;-72
2021/08/20 02:59:03;;;;;;;2.60;2.20;;;16.10;99.90;;;;;;4972159;28;20478;-71
2021/08/20 03:01:30;;;;;;;2.37;2.10;;;16.00;99.90;;;;;;4972595;28;20870;-71
2021/08/20 03:03:56;;;;;;;2.30;2.10;;;16.10;99.90;;;;;;4972521;28;21172;-71
2021/08/20 03:06:23;;;;;;;2.27;2.00;;;16.00;99.90;;;;;;4972457;28;20998;-72
2021/08/20 03:08:51;;;;;;;2.07;1.87;;;16.00;99.90;;;;;;4971859;28;20846;-72
2021/08/20 03:11:18;;;;;;;2.23;2.00;;;16.10;99.90;;;;;;4972511;28;20463;-71
2021/08/20 03:13:44;;;;;;;2.40;2.20;;;16.00;99.90;;;;;;4972212;28;20463;-72
2021/08/20 03:16:11;;;;;;;2.30;2.10;;;16.00;99.90;;;;;;4972479;28;20885;-71
2021/08/20 03:18:38;;;;;;;3.37;2.30;;;16.10;99.90;;;;;;4971537;28;20467;-72
2021/08/20 03:21:04;;;;;;;2.53;2.00;;;16.00;99.90;;;;;;4972493;28;20470;-72
2021/08/20 03:23:31;;;;;;;2.10;1.90;;;16.00;99.90;;;;;;4972177;28;20498;-72
2021/08/20 03:26:00;;;;;;;2.47;2.27;;;16.00;99.90;;;;;;4972102;28;20541;-72
2021/08/20 03:28:27;;;;;;;2.73;2.50;;;16.00;99.90;;;;;;4971247;28;20466;-72
2021/08/20 03:30:54;;;;;;;2.50;2.30;;;16.00;99.90;;;;;;4972254;28;20478;-72
2021/08/20 03:33:20;;;;;;;2.30;2.10;;;16.00;99.90;;;;;;4972230;28;20463;-72
2021/08/20 03:35:47;;;;;;;3.00;2.07;;;16.00;99.90;;;;;;4971662;28;20467;-72
2021/08/20 03:38:14;;;;;;;4.20;2.30;;;16.00;99.90;;;;;;4971498;28;20467;-72
2021/08/20 03:40:40;;;;;;;2.57;2.10;;;16.00;99.90;;;;;;4971415;28;20982;-71
2021/08/20 03:43:08;;;;;;;2.40;2.20;;;16.00;99.90;;;;;;4971754;28;20994;-71
2021/08/20 03:45:35;;;;;;;3.83;2.67;;;16.00;99.90;;;;;;4971797;28;20796;-71
2021/08/20 03:48:02;;;;;;;6.50;2.67;;;16.00;99.90;;;;;;4971375;28;20473;-71
2021/08/20 03:50:28;;;;;;;3.53;2.40;;;16.10;99.90;;;;;;4971714;28;20470;-71
2021/08/20 03:52:59;;;;;;;3.40;2.43;;;16.00;99.90;;;;;;4971932;28;20811;-71
2021/08/20 03:55:25;;;;;;;3.43;2.47;;;16.00;99.90;;;;;;4972282;28;20466;-71
2021/08/20 03:57:53;;;;;;;3.50;2.53;;;16.00;99.90;;;;;;4971521;28;20479;-71
2021/08/20 04:00:22;;;;;;;2.43;2.10;;;16.00;99.90;;;;;;4975295;28;20528;-71
2021/08/20 04:02:49;;;;;;;2.93;2.30;;;16.00;99.90;;;;;;4994987;28;20878;-71
2021/08/20 04:05:15;;;;;;;2.27;2.07;;;16.00;99.90;;;;;;4996642;28;20474;-71
2021/08/20 04:07:42;;;;;;;2.60;2.13;;;16.00;99.90;;;;;;4990059;28;20490;-71
2021/08/20 04:10:10;;;;;;;3.67;2.50;;;16.00;99.90;;;;;;4991263;28;20884;-71
2021/08/20 04:12:36;;;;;;;3.13;2.07;;;16.00;99.90;;;;;;4990227;28;20473;-72
2021/08/20 04:15:03;;;;;;;2.23;1.80;;;16.00;99.90;;;;;;4990932;28;20466;-71
2021/08/20 04:17:31;;;;;;;1.77;1.67;;;16.00;99.90;;;;;;4990343;28;21202;-71
2021/08/20 04:19:58;;;;;;;2.20;2.00;;;16.00;99.90;;;;;;4990998;28;20466;-71
2021/08/20 04:22:25;;;;;;;3.23;3.00;;;16.00;99.90;;;;;;4991090;28;20556;-71
2021/08/20 04:24:52;;;;;;;2.67;2.20;;;16.00;99.90;;;;;;4990687;28;20474;-71
2021/08/20 04:27:18;;;;;;;2.40;2.20;;;16.00;99.90;;;;;;4990269;28;20478;-71
2021/08/20 04:29:45;;;;;;;2.30;2.10;;;16.00;99.90;;;;;;4990515;28;20470;-71
2021/08/20 04:32:12;;;;;;;2.73;2.47;;;16.00;99.90;;;;;;4990700;28;20469;-71
2021/08/20 04:34:40;;;;;;;4.23;2.20;;;16.00;99.90;;;;;;4990557;28;20480;-72
2021/08/20 04:37:06;;;;;;;2.40;2.20;;;16.00;99.90;;;;;;4990556;28;20486;-72
2021/08/20 04:39:33;;;;;;;4.37;2.60;;;16.00;99.90;;;;;;4986735;28;20467;-71
2021/08/20 04:42:00;;;;;;;2.77;2.17;;;16.00;99.90;;;;;;4970825;28;20479;-71
2021/08/20 04:44:26;;;;;;;2.80;2.40;;;16.00;99.90;;;;;;4971097;28;21183;-71
2021/08/20 04:46:53;;;;;;;4.20;2.23;;;16.00;99.90;;;;;;4970875;28;20537;-72
2021/08/20 04:49:20;;;;;;;2.50;2.00;;;16.00;99.90;;;;;;4970494;28;20473;-72
2021/08/20 04:51:49;;;;;;;3.57;2.90;;;16.00;99.90;;;;;;4970193;28;20466;-72
2021/08/20 04:54:16;;;;;;;3.70;2.60;;;16.00;99.90;;;;;;4970757;28;20458;-71
2021/08/20 04:56:42;;;;;;;2.63;2.20;;;16.00;99.90;;;;;;4970298;28;20891;-71
2021/08/20 04:59:09;;;;;;;3.00;2.70;;;16.00;99.90;;;;;;4970251;28;20569;-71
2021/08/20 05:01:37;;;;;;;2.77;1.90;;;16.00;99.90;;;;;;4995479;28;20457;-71
2021/08/20 05:04:04;;;;;;;2.70;2.47;;;16.00;99.90;;;;;;5010386;28;20500;-71
2021/08/20 05:06:30;;;;;;;2.30;2.10;;;16.00;99.90;;;;;;5009844;28;20492;-72
2021/08/20 05:08:58;;;;;;;2.30;2.00;;;16.00;99.90;;;;;;5009367;28;20508;-72
2021/08/20 05:11:26;;;;;;;2.70;2.40;;;16.00;99.90;;;;;;5009774;28;20461;-71
2021/08/20 05:13:53;;;;;;;2.67;2.37;;;16.00;99.90;;;;;;5009395;28;20551;-71
2021/08/20 05:16:19;;;;;;;2.33;2.13;;;16.00;99.90;;;;;;5009606;28;20485;-72
2021/08/20 05:18:46;;;;;;;4.30;2.17;;;16.00;99.90;;;;;;5008820;28;20464;-71
2021/08/20 05:21:13;;;;;;;2.63;2.10;;;16.10;99.90;;;;;;5009530;28;20472;-71
2021/08/20 05:23:40;;;;;;;3.07;2.63;;;16.10;99.90;;;;;;5009111;28;20495;-71
2021/08/20 05:26:08;;;;;;;3.07;2.30;;;16.10;99.90;;;;;;5009297;28;20489;-72
2021/08/20 05:28:34;;;;;;;2.83;2.53;;;16.20;99.90;;;;;;5008724;28;20981;-71
2021/08/20 05:31:01;;;;;;;2.90;2.60;;;16.20;99.90;;;;;;5009517;28;20484;-72
2021/08/20 05:33:28;;;;;;;2.70;2.50;;;16.20;99.90;;;;;;5009123;28;20457;-72
2021/08/20 05:35:54;;;;;;;2.70;2.50;;;16.20;99.90;;;;;;5009234;28;20997;-72
2021/08/20 05:38:22;;;;;;;3.40;2.57;;;16.20;99.90;;;;;;5008159;28;21032;-72
2021/08/20 05:40:49;;;;;;;3.80;2.83;;;16.20;99.90;;;;;;5008632;28;20488;-73
2021/08/20 05:43:17;;;;;;;2.57;2.37;;;16.20;99.90;;;;;;5009001;28;20493;-72
2021/08/20 05:45:44;;;;;;;2.67;2.47;;;16.30;99.90;;;;;;5009018;28;20469;-72
2021/08/20 05:48:11;;;;;;;2.77;2.57;;;16.30;99.90;;;;;;5004330;28;20465;-72
2021/08/20 05:50:38;;;;;;;2.63;2.37;;;16.40;99.90;;;;;;4969730;28;20593;-73
2021/08/20 05:53:08;;;;;;;2.83;2.50;;;16.40;99.90;;;;;;4969977;28;20539;-72
2021/08/20 05:55:35;;;;;;;2.60;2.40;;;16.40;99.90;;;;;;4971159;28;20455;-72
2021/08/20 05:58:04;;;;;;;3.67;2.60;;;16.50;99.90;;;;;;4988970;28;20462;-72
2021/08/20 06:00:32;;;;;;;3.90;2.30;;;16.50;99.90;;;;;;5060779;22;20501;-70
2021/08/20 06:02:59;;;;;;;4.20;2.80;;;16.60;99.90;;;;;;5007266;28;20485;-69
2021/08/20 06:05:25;;;;;;;2.80;2.60;;;16.60;99.90;;;;;;5012958;28;20465;-70
2021/08/20 06:07:52;;;;;;;3.00;2.70;;;16.70;99.90;;;;;;5011877;28;20489;-69
2021/08/20 06:10:19;;;;;;;3.13;2.83;;;16.80;99.90;;;;;;5012672;28;20469;-69
2021/08/20 06:12:46;;;;;;;2.87;2.57;;;16.90;99.90;;;;;;5012776;28;20845;-69
2021/08/20 06:15:15;;;;;;;3.40;3.10;;;16.90;99.90;;;;;;5012885;28;20465;-70
2021/08/20 06:17:43;;;;;;;3.30;2.63;;;17.00;99.90;;;;;;5012245;28;20492;-70
2021/08/20 06:20:11;;;;;;;4.53;3.03;;;17.00;99.90;;;;;;5012858;28;20460;-69
2021/08/20 06:22:38;;;;;;;3.90;2.93;;;17.10;99.90;;;;;;5011772;28;20481;-69
2021/08/20 06:25:05;;;;;;;2.87;2.57;;;17.10;99.90;;;;;;5012806;28;20473;-69
2021/08/20 06:27:32;;;;;;;3.10;2.80;;;17.10;99.90;;;;;;5011591;28;20484;-69
2021/08/20 06:29:59;;;;;;;3.00;2.80;;;17.20;99.90;;;;;;5002434;28;20466;-69
2021/08/20 06:32:25;;;;;;;2.87;2.67;;;17.20;99.90;;;;;;4998839;28;20457;-69
2021/08/20 06:34:53;;;;;;;3.03;2.73;;;17.30;99.90;;;;;;5011855;28;20471;-69
2021/08/20 06:37:20;;;;;;;3.47;2.43;;;17.30;99.90;;;;;;5011390;28;20485;-69
2021/08/20 06:39:47;;;;;;;4.70;3.40;;;17.40;99.90;;;;;;5011417;28;20827;-69
2021/08/20 06:42:15;;;;;;;3.47;3.10;;;17.40;99.90;;;;;;5012311;28;20465;-69
2021/08/20 06:44:41;;;;;;;5.00;3.50;;;17.50;99.90;;;;;;5011779;28;20475;-69
2021/08/20 06:47:08;;;;;;;4.17;3.77;;;17.50;99.90;;;;;;5011771;28;20845;-69
2021/08/20 06:49:35;;;;;;;5.13;3.70;;;17.60;99.90;;;;;;5011386;28;20472;-69
2021/08/20 06:52:03;;;;;;;4.53;4.10;;;17.60;99.90;;;;;;5011696;28;20461;-69
2021/08/20 06:54:30;;;;;;;4.13;3.83;;;17.60;99.90;;;;;;5004921;28;20454;-69
2021/08/20 06:56:57;;;;;;;4.63;3.90;;;17.70;99.90;;;;;;4971549;28;20482;-69
2021/08/20 06:59:23;;;;;;;5.00;4.23;;;17.80;99.90;;;;;;4971649;28;20455;-69
2021/08/20 07:01:50;;;;;;;4.23;3.63;;;17.80;99.90;;;;;;4986670;28;20462;-69
2021/08/20 07:04:17;;;;;;;6.00;4.23;;;17.90;99.90;;;;;;4991381;28;20492;-69
2021/08/20 07:06:43;;;;;;;5.60;3.73;;;17.90;99.90;;;;;;4991452;28;20492;-69
2021/08/20 07:09:11;;;;;;;5.30;4.80;;;17.90;99.90;;;;;;4991463;28;20462;-69
2021/08/20 07:11:38;;;;;;;5.20;4.70;;;18.00;99.90;;;;;;4991779;28;20470;-69
2021/08/20 07:14:05;;;;;;;6.23;4.77;;;18.00;99.90;;;;;;4991669;28;20473;-69
2021/08/20 07:16:31;;;;;;;6.70;4.90;;;18.00;99.90;;;;;;4990821;28;20489;-69
2021/08/20 07:18:58;;;;;;;5.07;4.30;;;18.10;99.90;;;;;;4991068;28;20950;-69
2021/08/20 07:21:26;;;;;;;5.27;4.77;;;18.10;99.90;;;;;;4991873;28;20462;-69
2021/08/20 07:23:53;;;;;;;5.13;4.70;;;18.10;99.90;;;;;;4990798;28;20514;-69
2021/08/20 07:26:21;;;;;;;7.03;4.63;;;18.20;99.90;;;;;;4991895;28;20489;-69
2021/08/20 07:28:48;;;;;;;5.03;4.43;;;18.30;99.90;;;;;;4990473;28;20469;-69
2021/08/20 07:31:14;;;;;;;4.50;4.10;;;18.40;99.90;;;;;;4991827;28;20470;-69
2021/08/20 07:33:41;;;;;;;4.83;4.33;;;18.50;99.90;;;;;;4991611;28;20469;-69
2021/08/20 07:36:08;;;;;;;5.40;4.87;;;18.60;99.90;;;;;;4991325;28;20562;-68
2021/08/20 07:38:35;;;;;;;5.60;5.00;;;18.70;99.90;;;;;;4990615;28;20466;-69
2021/08/20 07:41:01;;;;;;;5.10;4.50;;;18.80;99.90;;;;;;4991190;28;20464;-69
2021/08/20 07:43:29;;;;;;;4.90;4.40;;;18.90;99.90;;;;;;4991230;28;20482;-69
2021/08/20 07:45:56;;;;;;;6.60;5.77;;;18.90;99.90;;;;;;4991119;28;20486;-69
2021/08/20 07:48:23;;;;;;;5.13;4.63;;;19.00;99.90;;;;;;4990506;28;20469;-69
2021/08/20 07:50:50;;;;;;;5.80;4.23;;;19.00;99.90;;;;;;4990701;28;20466;-68
2021/08/20 07:53:17;;;;;;;4.77;4.37;;;19.20;99.90;;;;;;4995706;28;20457;-69
2021/08/20 07:55:44;;;;;;;4.40;4.00;;;19.20;99.90;;;;;;4988583;28;20454;-69
2021/08/20 07:58:11;;;;;;;6.30;4.80;;;19.30;99.90;;;;;;4990114;28;20470;-69
2021/08/20 08:00:39;;;;;;;4.07;3.77;;;19.30;99.90;;;;;;4990652;28;20469;-69
2021/08/20 08:03:06;;;;;;;4.23;3.67;;;19.40;99.90;;;;;;4990369;28;20490;-69
2021/08/20 08:05:33;;;;;;;4.10;3.70;;;19.50;99.90;;;;;;4990465;28;20469;-68
2021/08/20 08:08:00;;;;;;;4.07;3.67;;;19.60;99.90;;;;;;4990022;28;20466;-69
2021/08/20 08:10:27;;;;;;;3.70;3.40;;;19.60;99.90;;;;;;4990504;28;20818;-68
2021/08/20 08:12:54;;;;;;;5.00;4.20;;;19.70;99.90;;;;;;4990526;28;20466;-69
2021/08/20 08:15:21;;;;;;;4.33;3.93;;;19.70;99.90;;;;;;4990595;28;20470;-68
2021/08/20 08:17:50;;;;;;;4.40;4.00;;;19.70;99.90;;;;;;4989595;28;20486;-68
2021/08/20 08:20:18;;;;;;;5.40;4.27;;;19.60;99.90;;;;;;4990510;28;20477;-68
2021/08/20 08:22:45;;;;;;;5.80;4.10;;;19.60;99.90;;;;;;4989644;28;20488;-68
2021/08/20 08:25:13;;;;;;;6.90;4.10;;;19.50;99.90;;;;;;4990398;28;20485;-68
2021/08/20 08:27:52;;;;;;;4.57;4.17;;;19.40;99.90;;;;;;4989307;28;20901;-68
2021/08/20 08:30:19;;;;;;;5.37;4.60;;;19.40;99.90;;;;;;4990173;28;20474;-68
2021/08/20 08:32:46;;;;;;;6.90;4.47;;;19.40;99.90;;;;;;4990073;28;20473;-69
2021/08/20 08:35:14;;;;;;;7.20;4.73;;;19.40;99.90;;;;;;4990153;28;20458;-68
2021/08/20 08:37:40;;;;;;;7.40;4.40;;;19.50;99.90;;;;;;4989509;28;20485;-68
2021/08/20 08:40:08;;;;;;;4.93;4.10;;;19.60;99.90;;;;;;4989947;28;20458;-68
2021/08/20 08:42:36;;;;;;;4.80;4.30;;;19.60;99.90;;;;;;4989722;28;20475;-68
2021/08/20 08:45:05;;;;;;;4.67;4.27;;;19.80;99.90;;;;;;4990055;28;20494;-68
2021/08/20 08:47:34;;;;;;;4.90;4.23;;;19.90;99.90;;;;;;4988814;28;20498;-69
2021/08/20 08:50:02;;;;;;;3.90;3.60;;;20.10;99.90;;;;;;4989968;28;20490;-68
2021/08/20 08:52:31;;;;;;;3.60;3.30;;;20.20;99.90;;;;;;4989521;28;20465;-68
2021/08/20 08:55:01;;;;;;;4.70;3.80;;;20.20;99.90;;;;;;4989823;28;20458;-68
2021/08/20 08:57:27;;;;;;;3.90;3.60;;;20.20;99.90;;;;;;4988917;28;20486;-68
2021/08/20 08:59:54;;;;;;;4.20;3.80;;;20.20;99.90;;;;;;4989596;28;20478;-68
2021/08/20 09:02:22;;;;;;;4.93;3.37;;;20.20;99.90;;;;;;4989543;28;20470;-68
2021/08/20 09:04:57;;;;;;;4.53;3.67;;;20.20;99.90;;;;;;4988987;28;20615;-68
2021/08/20 09:07:25;;;;;;;3.77;3.37;;;20.20;99.90;;;;;;4988917;28;20492;-69
2021/08/20 09:10:13;;;;;;;4.63;3.60;;;20.30;99.90;;;;;;4989123;28;20890;-69
2021/08/20 09:12:43;;;;;;;4.57;3.53;;;20.50;99.90;;;;;;4989013;28;20462;-69
2021/08/20 09:15:12;;;;;;;4.27;3.87;;;20.70;99.90;;;;;;4989534;28;20891;-69
2021/08/20 09:17:46;;;;;;;4.57;3.30;;;20.80;99.90;;;;;;4988672;28;20482;-68
2021/08/20 09:20:18;;;;;;;3.50;3.20;;;20.90;99.90;;;;;;4989445;28;20472;-68
2021/08/20 09:22:46;;;;;;;4.37;3.83;;;21.10;99.90;;;;;;4986917;28;20469;-69
2021/08/20 09:25:35;;;;;;;4.40;3.80;;;21.20;99.90;;;;;;4988888;28;20847;-69
2021/08/20 09:28:13;;;;;;;4.43;4.07;;;21.10;99.90;;;;;;4987694;28;20496;-69
2021/08/20 09:30:41;;;;;;;4.33;3.90;;;21.10;99.90;;;;;;4985627;28;20549;-68
2021/08/20 09:33:13;;;;;;;4.60;4.20;;;21.10;99.90;;;;;;4988476;28;20466;-68
2021/08/20 09:35:41;;;;;;;5.07;4.67;;;21.40;99.90;;;;;;4987599;28;20486;-68
2021/08/20 09:38:12;;;;;;;4.97;4.57;;;21.70;99.90;;;;;;4987737;28;20470;-68
2021/08/20 09:40:50;;;;;;;4.50;4.20;;;22.00;99.90;;;;;;4987628;28;20841;-69
2021/08/20 09:43:21;;;;;;;5.27;4.87;;;22.30;99.90;;;;;;4988251;28;20461;-68
2021/08/20 09:46:00;;;;;;;4.80;4.30;;;22.40;99.90;;;;;;4987727;28;20522;-69
2021/08/20 09:48:50;;;;;;;4.30;3.87;;;22.50;99.90;;;;;;4987711;28;20484;-68
2021/08/20 09:51:38;;;;;;;4.30;4.00;;;22.40;99.90;;;;;;4988028;28;20462;-68
2021/08/20 09:54:07;;;;;;;4.00;3.67;;;22.10;99.90;;;;;;4988265;28;20520;-69
2021/08/20 09:56:36;;;;;;;4.83;4.43;;;21.90;99.90;;;;;;4987590;28;20478;-68
2021/08/20 09:59:04;;;;;;;3.47;3.17;;;21.80;99.90;;;;;;4968319;28;20487;-69
2021/08/20 10:01:33;;;;;;;3.30;3.00;;;21.80;99.90;;;;;;4969203;28;20854;-69
2021/08/20 10:04:03;;;;;;;3.50;3.20;;;21.90;99.90;;;;;;4969450;28;20491;-68
2021/08/20 10:06:32;;;;;;;4.40;3.47;;;22.10;99.90;;;;;;4969911;28;20683;-68
2021/08/20 10:09:01;;;;;;;3.43;3.13;;;22.30;99.90;;;;;;4969327;28;20618;-68
2021/08/20 10:11:30;;;;;;;3.53;3.23;;;22.50;99.90;;;;;;4969307;28;20550;-68
2021/08/20 10:14:00;;;;;;;3.40;3.10;;;22.50;99.90;;;;;;4969715;28;21018;-69
2021/08/20 10:16:28;;;;;;;3.53;3.23;;;22.30;99.90;;;;;;4969497;28;20491;-68
2021/08/20 10:18:55;;;;;;;3.27;2.97;;;22.20;99.90;;;;;;4969025;28;20474;-68
2021/08/20 10:21:23;;;;;;;3.67;3.37;;;22.00;99.90;;;;;;4969960;28;20470;-68
2021/08/20 10:23:50;;;;;;;3.77;3.43;;;21.90;99.90;;;;;;4969160;28;20487;-68
2021/08/20 10:26:17;;;;;;;5.40;3.90;;;21.70;99.90;;;;;;4970335;28;20487;-69
2021/08/20 10:28:45;;;;;;;5.17;4.67;;;21.60;99.90;;;;;;4968744;28;20950;-69
2021/08/20 10:31:15;;;;;;;4.63;4.20;;;21.50;99.90;;;;;;4969713;28;20472;-68
2021/08/20 10:33:41;;;;;;;4.37;3.97;;;21.40;99.90;;;;;;4968919;28;20470;-69
2021/08/20 10:36:09;;;;;;;6.20;4.87;;;21.40;99.90;;;;;;4969163;28;21022;-68
2021/08/20 10:38:42;;;;;;;3.90;3.60;;;21.60;99.90;;;;;;4968508;28;20879;-68
2021/08/20 10:41:17;;;;;;;4.97;4.53;;;22.00;99.90;;;;;;4969217;28;20856;-68
2021/08/20 10:43:52;;;;;;;4.20;3.80;;;22.30;99.90;;;;;;4968992;28;20970;-68
2021/08/20 10:47:07;;;;;;;4.93;4.23;;;22.50;99.90;;;;;;4969398;28;20886;-68
2021/08/20 10:49:49;;;;;;;11.30;4.33;;;22.50;99.90;;;;;;4963522;28;20463;-68
2021/08/20 10:52:41;;;;;;;4.10;3.70;;;22.40;99.90;;;;;;4971952;28;20466;-68
2021/08/20 10:55:14;;;;;;;5.17;3.50;;;22.30;99.90;;;;;;4975185;28;20466;-68
2021/08/20 10:58:02;;;;;;;4.10;3.70;;;22.00;99.90;;;;;;5010345;28;20563;-68
2021/08/20 11:00:30;;;;;;;4.60;4.20;;;21.80;99.90;;;;;;5011464;28;20476;-68
2021/08/20 11:02:58;;;;;;;4.47;3.70;;;21.70;99.90;;;;;;5011345;28;20468;-68
2021/08/20 11:05:44;;;;;;;3.80;3.40;;;21.60;99.90;;;;;;5011438;28;20895;-68
2021/08/20 11:08:33;;;;;;;4.60;3.43;;;21.50;99.90;;;;;;5011041;28;20468;-68
2021/08/20 11:11:01;;;;;;;3.80;3.50;;;21.50;99.90;;;;;;4992125;28;20470;-68
2021/08/20 11:13:28;;;;;;;4.30;4.00;;;21.50;99.90;;;;;;4979989;28;20463;-68
2021/08/20 11:15:55;;;;;;;4.00;3.70;;;21.70;99.90;;;;;;4980719;28;20505;-68
2021/08/20 11:18:41;;;;;;;3.90;3.60;;;22.00;99.90;;;;;;4981680;28;20466;-68
2021/08/20 11:21:09;;;;;;;3.83;3.53;;;22.40;99.90;;;;;;4985837;28;20459;-68
2021/08/20 11:23:36;;;;;;;3.87;3.40;;;22.70;99.90;;;;;;4981995;28;20850;-68
2021/08/20 11:26:04;;;;;;;3.60;3.20;;;23.00;99.90;;;;;;4981245;28;20491;-68
2021/08/20 11:28:33;;;;;;;3.73;3.43;;;23.20;99.90;;;;;;4978875;28;20455;-68
2021/08/20 11:31:03;;;;;;;4.27;3.77;;;23.40;99.90;;;;;;4979364;28;20466;-68
2021/08/20 11:33:31;;;;;;;4.10;3.80;;;23.60;99.90;;;;;;4981817;28;20459;-68
2021/08/20 11:36:00;;;;;;;4.20;3.90;;;23.80;99.90;;;;;;4979320;28;21227;-68
2021/08/20 11:38:32;;;;;;;6.10;3.60;;;24.00;99.90;;;;;;4981030;28;20847;-68
2021/08/20 11:41:04;;;;;;;3.80;3.50;;;24.10;99.90;;;;;;4980173;28;20549;-68
2021/08/20 11:43:31;;;;;;;4.00;3.60;;;24.00;99.90;;;;;;4981458;28;20997;-68
2021/08/20 11:46:03;;;;;;;4.47;3.50;;;23.80;99.90;;;;;;4981109;28;20500;-68
2021/08/20 11:48:32;;;;;;;3.63;3.33;;;23.50;99.90;;;;;;4979008;28;20471;-68
2021/08/20 11:51:01;;;;;;;4.03;3.73;;;23.30;99.90;;;;;;4980022;28;20460;-68
2021/08/20 11:53:29;;;;;;;3.97;3.67;;;23.00;99.90;;;;;;4980296;28;21035;-68
2021/08/20 11:56:11;;;;;;;4.10;3.80;;;22.90;99.90;;;;;;4979824;28;20978;-67
2021/08/20 11:58:38;;;;;;;3.70;3.40;;;22.70;99.90;;;;;;4978651;28;20459;-67
2021/08/20 12:01:05;;;;;;;3.53;3.23;;;22.80;99.90;;;;;;5064059;22;20512;-69
2021/08/20 12:03:35;;;;;;;4.40;3.50;;;23.10;99.90;;;;;;4979083;28;20959;-68
2021/08/20 12:06:09;;;;;;;3.80;3.50;;;23.40;99.90;;;;;;4980108;28;20482;-68
2021/08/20 12:08:37;;;;;;;4.00;3.70;;;23.80;99.90;;;;;;4976944;28;20872;-68
2021/08/20 12:11:05;;;;;;;4.13;3.83;;;24.00;99.90;;;;;;4979804;28;20459;-69
2021/08/20 12:13:40;;;;;;;3.97;3.50;;;24.20;99.90;;;;;;4977184;28;20467;-69
2021/08/20 12:16:07;;;;;;;3.93;3.60;;;24.30;99.90;;;;;;4978918;28;20496;-68
2021/08/20 12:18:33;;;;;;;4.40;3.93;;;24.40;99.90;;;;;;4984171;28;20467;-69
2021/08/20 12:21:00;;;;;;;4.83;3.97;;;24.60;99.90;;;;;;4990845;28;20465;-69
2021/08/20 12:23:27;;;;;;;7.17;4.43;;;24.70;99.90;;;;;;4990074;28;20466;-69
2021/08/20 12:25:55;;;;;;;3.50;3.20;;;24.80;99.90;;;;;;4978338;28;20490;-69
2021/08/20 12:28:22;;;;;;;3.80;3.50;;;24.80;99.90;;;;;;4969521;28;20960;-68
2021/08/20 12:30:49;;;;;;;3.67;3.37;;;24.60;99.90;;;;;;4970822;28;20834;-69
2021/08/20 12:33:16;;;;;;;4.60;3.30;;;24.30;99.90;;;;;;4970384;28;20502;-68
2021/08/20 12:35:53;;;;;;;4.13;3.83;;;24.10;99.90;;;;;;4969960;28;20791;-69
2021/08/20 12:38:21;;;;;;;3.70;3.40;;;23.90;99.90;;;;;;4969704;28;20470;-69
2021/08/20 12:40:49;;;;;;;3.40;3.10;;;23.80;99.90;;;;;;4970051;28;20969;-69
2021/08/20 12:43:34;;;;;;;4.90;3.70;;;23.60;99.90;;;;;;4970306;28;20770;-68
2021/08/20 12:46:09;;;;;;;3.60;3.27;;;23.50;99.90;;;;;;4969644;28;21010;-68
2021/08/20 12:48:37;;;;;;;4.90;3.37;;;23.20;99.90;;;;;;4969566;28;20476;-69
2021/08/20 12:51:05;;;;;;;4.00;3.60;;;23.10;99.90;;;;;;4967659;28;20458;-69
2021/08/20 12:53:34;;;;;;;3.30;3.00;;;22.90;99.90;;;;;;4969674;28;20467;-68
2021/08/20 12:56:01;;;;;;;4.53;3.30;;;22.70;99.90;;;;;;4970156;28;20482;-69